Alexander City, AL

1:00 PM CDT on June 22, 2017 (GMT -0500)
Russell | | Change Station

Elev 686 ft 32.92 °N, 85.97 °W | Updated 5 minutes ago

Mostly Cloudy
Mostly Cloudy
79 °F
Feels Like 79 °F
N
8
Wind Variable Wind from SSE
Gusts 16 mph

Today
High -- | Low -- °F
--% Chance of Precip.
Yesterday
High -- | Low -- °F
Precip. -- in
Pressure 30.01 in
Visibility 10.0 miles
Clouds Mostly Cloudy 1500 ft
Mostly Cloudy 2000 ft
Mostly Cloudy 3000 ft
Dew Point 75 °F
Humidity 87%
Rainfall 1.95 in
Snow Depth Not available.
5:36 AM 7:55 PM
Waning Crescent, 3% visible
METAR KALX 221755Z AUTO 15007G14KT 10SM BKN015 BKN020 BKN030 26/24 A3001 RMK AO2 LTG DSNT SW THRU N 60054 T02630239 10266 20233
Pressure 30.01 in
Visibility 10.0 miles
Clouds Mostly Cloudy 1500 ft
Mostly Cloudy 2000 ft
Mostly Cloudy 3000 ft
Dew Point 75 °F
Humidity 87%
Rainfall 1.95 in
Snow Depth Not available.
5:36 AM 7:55 PM
Waning Crescent, 3% visible
METAR KALX 221755Z AUTO 15007G14KT 10SM BKN015 BKN020 BKN030 26/24 A3001 RMK AO2 LTG DSNT SW THRU N 60054 T02630239 10266 20233

Get Severe Weather Alerts

Thanks for signing up!

Be on the lookout for a verification email in your inbox.

You'll start receiving the daily forecast at 6 AM.

×

10-Day Weather Forecast

Almanac

Astronomy

Jun. 22, 2017 Rise Set
Actual Time
Civil Twilight
Nautical Twilight
Astronomical Twilight
Moon
Length of Visible Light
Length of Day
Tomorrow will be .
, % of the Moon is Illuminated

Today's Extremes

State Highs State Lows

Community

WunderPhotos

Category 6

Welcome to Category 6. This is the collective home for Weather Underground's featured writeups by Dr. Jeff Masters (right), Bob Henson (left), Chris Burt, and other regular contributors.

Nearby

Air Quality

  Air Quality AQ Index Pollutant
Not available.

Snow Depth

Station Depth Elevation

Earthquake Activity

City Distance Mag. Time & Date
Minimum magnitude displayed is 2.5.

Coastal Water Temperatures

Place Temperature

Stations

Nearby Weather Stations

Station Location Temp. Windchill Dew Point Humidity Wind Precip. Elev Updated Type
                   

Watches & Warnings

There are currently no watches in effect.